»·PEaware :: SWA953 KHOU-MMMX

SWA953 :: KHOU-MMMX

FLIGHT INFORMATION

Flight Status: Arrived
Operator:
Southwest Airlines
More flights by this operator :: More flights under this callsign
Pilot: Edgar M. (23243)
Aircraft: BOEING 737-800
(B738)
More flights by this aircraft type
Origin: KHOU Hobby
United States
Destination: MMMX Lic Benito Juarez Intl
Mexico
More flights between these airports :: More routes between these airports
Route: PTRON5 WWREN BRO MAM UJ35 AVSAR AVSA3B
File this flight plan on PilotEdge
Remarks: NONE
Altitude:
(Current/Filed)
36,000ft
Speed:
(Current/Filed)
451kts
Departed: 31-Oct-19 11:44 PM
Arrived: 01-Nov-19 01:29 AM
Distance/Time
Traveled:
647nm/1:45
Distance/Time
To Go:
Arrived

Flight Plot

Page will automatically refresh every two minutes.

Flight plan parsing failed; only flown route is shown


Map Options




Map Legend


Flown Route
Filed Route
Departure Airport
Arrival Airport
Navaid (VOR, NDB)
Fix

Horizontal Profiles

Position Reports

Time Latitude Longitude Heading Altitude Ground
Speed
31-Oct-19 23:35 29.648772 -95.277926 223 50ft 0kts
31-Oct-19 23:36 29.648772 -95.277926 223 50ft 0kts
31-Oct-19 23:37 29.648772 -95.277926 223 50ft 0kts
31-Oct-19 23:38 29.648772 -95.277926 223 50ft 0kts
31-Oct-19 23:39 29.647123 -95.279685 223 51ft 15kts
31-Oct-19 23:40 29.643744 -95.283431 224 50ft 20kts
31-Oct-19 23:41 29.639813 -95.285986 134 51ft 15kts
31-Oct-19 23:42 29.636357 -95.285304 173 51ft 17kts
31-Oct-19 23:43 29.657162 -95.284783 358 330ft 178kts
31-Oct-19 23:44 29.694197 -95.249994 109 2934ft 241kts
31-Oct-19 23:45 29.631183 -95.219870 172 5911ft 270kts
31-Oct-19 23:46 29.560704 -95.208286 173 8916ft 281kts
31-Oct-19 23:47 29.480261 -95.197945 191 11326ft 311kts
31-Oct-19 23:48 29.402325 -95.242366 214 14094ft 321kts
31-Oct-19 23:49 29.326995 -95.298734 216 16771ft 329kts
31-Oct-19 23:50 29.249582 -95.357048 217 19235ft 337kts
31-Oct-19 23:51 29.170274 -95.416671 218 21491ft 345kts
31-Oct-19 23:52 29.089198 -95.477509 218 23527ft 353kts
31-Oct-19 23:53 29.006281 -95.539613 218 25309ft 363kts
31-Oct-19 23:54 28.920702 -95.603576 218 26898ft 373kts
31-Oct-19 23:55 28.828816 -95.663466 213 28391ft 385kts
31-Oct-19 23:56 28.734282 -95.722821 214 29818ft 393kts
31-Oct-19 23:57 28.637452 -95.783570 214 31139ft 402kts
31-Oct-19 23:58 28.539427 -95.844916 214 32668ft 401kts
31-Oct-19 23:59 28.442436 -95.905503 214 34161ft 398kts
01-Nov-19 00:00 28.345638 -95.965847 214 35460ft 395kts
01-Nov-19 00:01 28.249438 -96.025708 214 36419ft 399kts
01-Nov-19 00:02 28.149802 -96.087564 214 36436ft 411kts
01-Nov-19 00:03 28.049561 -96.147163 213 36437ft 408kts
01-Nov-19 00:04 27.948730 -96.206645 213 36434ft 410kts
01-Nov-19 00:05 27.847674 -96.266149 213 36429ft 409kts
01-Nov-19 00:06 27.746490 -96.325606 213 36438ft 409kts
01-Nov-19 00:07 27.645850 -96.384618 213 36443ft 410kts
01-Nov-19 00:08 27.544645 -96.443837 213 36442ft 409kts
01-Nov-19 00:09 27.443752 -96.502752 213 36442ft 410kts
01-Nov-19 00:10 27.342712 -96.561628 213 36441ft 410kts
01-Nov-19 00:11 27.241639 -96.620402 213 36440ft 410kts
01-Nov-19 00:12 27.140361 -96.679153 213 36452ft 410kts
01-Nov-19 00:13 27.039085 -96.737791 213 36450ft 410kts
01-Nov-19 00:14 26.936956 -96.796841 211 36418ft 419kts
01-Nov-19 00:15 26.832308 -96.857186 211 36394ft 424kts
01-Nov-19 00:16 26.727609 -96.917437 211 36393ft 422kts
01-Nov-19 00:17 26.623137 -96.977440 211 36394ft 422kts
01-Nov-19 00:18 26.518734 -97.037272 211 36392ft 419kts
01-Nov-19 00:19 26.415270 -97.096450 211 36392ft 417kts
01-Nov-19 00:20 26.312137 -97.155318 211 36391ft 415kts
01-Nov-19 00:21 26.209680 -97.213683 210 36390ft 413kts
01-Nov-19 00:22 26.107522 -97.271766 210 36389ft 413kts
01-Nov-19 00:23 26.004823 -97.330039 211 36389ft 413kts
01-Nov-19 00:24 25.905844 -97.393460 222 36391ft 408kts
01-Nov-19 00:25 25.820473 -97.475863 224 36389ft 407kts
01-Nov-19 00:26 25.721484 -97.537920 200 36394ft 419kts
01-Nov-19 00:27 25.608485 -97.571278 199 36388ft 420kts
01-Nov-19 00:28 25.495574 -97.604132 199 36387ft 419kts
01-Nov-19 00:29 25.382623 -97.636940 199 36387ft 420kts
01-Nov-19 00:30 25.269533 -97.669708 199 36395ft 420kts
01-Nov-19 00:31 25.156648 -97.702365 199 36395ft 420kts
01-Nov-19 00:32 25.043575 -97.735025 198 36277ft 423kts
01-Nov-19 00:33 24.929545 -97.767882 197 35266ft 422kts
01-Nov-19 00:34 24.815098 -97.800813 197 34279ft 425kts
01-Nov-19 00:35 24.700282 -97.833778 197 33290ft 426kts
01-Nov-19 00:36 24.585361 -97.866712 196 32299ft 428kts
01-Nov-19 00:37 24.469653 -97.899809 196 31299ft 429kts
01-Nov-19 00:38 24.354114 -97.932793 196 30418ft 428kts
01-Nov-19 00:39 24.237532 -97.966017 196 30392ft 433kts
01-Nov-19 00:40 24.121172 -97.999108 196 30391ft 432kts
01-Nov-19 00:41 24.004456 -98.032241 196 30391ft 432kts
01-Nov-19 00:42 23.887749 -98.065309 196 30393ft 432kts
01-Nov-19 00:43 23.770875 -98.098363 196 30394ft 432kts
01-Nov-19 00:44 23.654360 -98.131254 196 30393ft 432kts
01-Nov-19 00:45 23.537929 -98.164061 196 30392ft 432kts
01-Nov-19 00:46 23.421232 -98.196882 196 30392ft 432kts
01-Nov-19 00:47 23.304915 -98.229533 196 30389ft 428kts
01-Nov-19 00:48 23.188827 -98.262050 196 30383ft 414kts
01-Nov-19 00:49 23.077472 -98.293216 196 30391ft 416kts
01-Nov-19 00:50 22.965683 -98.324431 195 30390ft 417kts
01-Nov-19 00:51 22.852946 -98.355862 195 30394ft 424kts
01-Nov-19 00:52 22.738531 -98.387703 195 30393ft 423kts
01-Nov-19 00:53 22.624599 -98.419356 195 30434ft 424kts
01-Nov-19 00:54 22.509456 -98.451291 195 30474ft 426kts
01-Nov-19 00:55 22.394922 -98.483002 195 30474ft 425kts
01-Nov-19 00:56 22.280706 -98.514571 195 30474ft 425kts
01-Nov-19 00:57 22.165904 -98.546248 195 30473ft 425kts
01-Nov-19 00:58 22.051105 -98.577871 195 30473ft 425kts
01-Nov-19 00:59 21.936500 -98.609388 195 30473ft 425kts
01-Nov-19 01:00 21.822197 -98.640769 195 30475ft 425kts
01-Nov-19 01:01 21.708636 -98.671898 194 30480ft 443kts
01-Nov-19 01:02 21.588768 -98.704697 195 30457ft 440kts
01-Nov-19 01:03 21.469405 -98.737309 195 30458ft 442kts
01-Nov-19 01:04 21.349891 -98.769901 195 30457ft 442kts
01-Nov-19 01:05 21.230419 -98.802428 195 30457ft 442kts
01-Nov-19 01:06 21.110998 -98.834887 195 30457ft 442kts
01-Nov-19 01:07 20.990956 -98.867462 194 30456ft 446kts
01-Nov-19 01:08 20.877296 -98.898232 193 30452ft 394kts
01-Nov-19 01:09 20.771169 -98.926909 194 30457ft 397kts
01-Nov-19 01:10 20.667188 -98.942021 184 30226ft 362kts
01-Nov-19 01:11 20.561595 -98.951962 185 29306ft 396kts
01-Nov-19 01:12 20.455796 -98.962025 184 27347ft 368kts
01-Nov-19 01:13 20.356948 -98.971410 184 25499ft 346kts
01-Nov-19 01:14 20.257891 -98.980802 184 23633ft 353kts
01-Nov-19 01:15 20.160767 -98.990047 184 22214ft 354kts
01-Nov-19 01:16 20.066431 -98.999047 184 19956ft 331kts
01-Nov-19 01:17 19.976835 -99.007580 184 17886ft 315kts
01-Nov-19 01:18 19.892419 -99.015615 183 17412ft 288kts
01-Nov-19 01:19 19.815099 -99.022951 183 16113ft 275kts
01-Nov-19 01:21 19.739623 -99.021599 161 14738ft 267kts
01-Nov-19 01:22 19.675787 -98.982161 145 13488ft 263kts
01-Nov-19 01:23 19.613350 -98.945142 160 12254ft 247kts
01-Nov-19 01:24 19.552209 -98.926224 161 11171ft 221kts
01-Nov-19 01:25 19.498614 -98.927628 247 10676ft 195kts
01-Nov-19 01:26 19.485731 -98.982139 233 10097ft 215kts
01-Nov-19 01:27 19.457680 -99.031065 237 7826ft 182kts
01-Nov-19 01:28 19.437103 -99.067877 238 7320ft 107kts
01-Nov-19 01:29 19.433252 -99.078245 269 7320ft 20kts
01-Nov-19 01:30 19.435019 -99.081654 329 7320ft 0kts
01-Nov-19 01:31 19.435019 -99.081654 329 7320ft 0kts
01-Nov-19 01:32 19.435019 -99.081654 329 7320ft 0kts
01-Nov-19 01:33 19.435019 -99.081654 329 7320ft 0kts
01-Nov-19 01:34 19.435019 -99.081654 329 7320ft 0kts
01-Nov-19 01:35 19.435019 -99.081654 329 7320ft 0kts

Navigation Log

Ident Type
Flight plan parsing failed, navigation log unavailable